KBVO/BVO METAR and TAF weather

Enter ICAO airport designator
Station Type Date Time Source
KBVO METAR 2020/09/26 10:53 UTC NOAA

KBVO 261053Z AUTO 18006KT 8SM CLR 17/16 A2988 RMK AO2 SLP108 T01670161


Station Type Date Time Source
KBVO Decoded METAR 2020/09/26 10:53 UTC NOAA

BARTLESVILLE MUNICIPAL AIRPORT , OK, United States (KBVO) 36-46N 96-01W 210M
Sep 26, 2020 - 06:53 AM EDT / 2020.09.26 1053 UTC
Wind: from the S (180 degrees) at 7 MPH (6 KT):0
Visibility: 8 mile(s):0
Sky conditions: clear
Temperature: 62.1 F (16.7 C)
Dew Point: 61.0 F (16.1 C)
Relative Humidity: 96%
Pressure (altimeter): 29.88 in. Hg (1011 hPa)
ob: KBVO 261053Z AUTO 18006KT 8SM CLR 17/16 A2988 RMK AO2 SLP108 T01670161
cycle: 11

Station Type Date Time Source
KBVO TAF 2020/09/26 06:39 UTC NOAA

TAF KBVO 260536Z 2606/2706 18008KT P6SM SKC
TEMPO 2611/2614 SCT005
FM261600 18013G20KT P6SM SKC
FM270100 17011KT P6SM SKC

Example: see airport list